createdAt,value
2018-08-20T00:00:47.166Z,48.70
2018-08-20T00:03:22.288Z,48.60
2018-08-20T00:05:53.266Z,48.70
2018-08-20T00:08:22.647Z,48.70
2018-08-20T00:10:54.937Z,48.70
2018-08-20T00:13:23.421Z,48.70
2018-08-20T00:15:51.891Z,48.80
2018-08-20T00:18:25.507Z,48.70
2018-08-20T00:20:53.900Z,48.80
2018-08-20T00:23:22.756Z,48.80
2018-08-20T00:25:52.329Z,48.90
2018-08-20T00:28:20.608Z,48.90
2018-08-20T00:30:48.909Z,48.90
2018-08-20T00:33:17.232Z,48.90
2018-08-20T00:35:45.537Z,48.80
2018-08-20T00:38:14.948Z,49.00
2018-08-20T00:40:43.774Z,48.90
2018-08-20T00:43:12.106Z,48.90
2018-08-20T00:45:40.738Z,48.90
2018-08-20T00:48:09.029Z,49.00
2018-08-20T00:50:37.349Z,49.00
2018-08-20T00:53:05.638Z,49.00
2018-08-20T00:55:33.996Z,48.90
2018-08-20T00:58:02.290Z,49.00
2018-08-20T01:00:30.589Z,49.10
2018-08-20T01:02:58.869Z,49.10
2018-08-20T01:05:27.168Z,49.10
2018-08-20T01:07:55.510Z,49.10
2018-08-20T01:10:23.915Z,49.10
2018-08-20T01:12:52.231Z,49.10
2018-08-20T01:15:20.516Z,49.10
2018-08-20T01:17:48.855Z,49.20
2018-08-20T01:20:17.284Z,49.20
2018-08-20T01:22:45.598Z,49.20
2018-08-20T01:25:13.945Z,49.30
2018-08-20T01:27:46.517Z,49.30
2018-08-20T01:30:14.806Z,49.20
2018-08-20T01:32:43.105Z,49.20
2018-08-20T01:35:26.641Z,49.20
2018-08-20T01:37:55.474Z,49.20
2018-08-20T01:40:24.099Z,49.20
2018-08-20T01:42:52.358Z,49.30
2018-08-20T01:45:20.705Z,49.20
2018-08-20T01:47:49.273Z,49.20
2018-08-20T01:50:17.599Z,49.40
2018-08-20T01:52:45.901Z,49.30
2018-08-20T01:55:14.255Z,49.30
2018-08-20T01:57:42.621Z,49.30
2018-08-20T02:00:11.049Z,49.30
2018-08-20T02:02:39.393Z,49.30
2018-08-20T02:05:08.202Z,49.30
2018-08-20T02:07:36.626Z,49.40
2018-08-20T02:10:06.252Z,49.40
2018-08-20T02:12:34.534Z,49.40
2018-08-20T02:15:03.681Z,49.50
2018-08-20T02:17:32.063Z,49.50
2018-08-20T02:20:00.431Z,49.40
2018-08-20T02:22:28.750Z,49.50
2018-08-20T02:24:57.034Z,49.50
2018-08-20T02:27:25.341Z,49.50
2018-08-20T02:29:53.692Z,49.50
2018-08-20T02:32:22.021Z,49.60
2018-08-20T02:34:50.480Z,49.50
2018-08-20T02:37:18.825Z,49.60
2018-08-20T02:39:47.161Z,49.50
2018-08-20T02:42:15.529Z,49.60
2018-08-20T02:44:43.848Z,49.60
2018-08-20T02:47:12.218Z,49.60
2018-08-20T02:49:40.490Z,49.60
2018-08-20T02:52:08.825Z,49.60
2018-08-20T02:54:37.137Z,49.60
2018-08-20T02:57:05.596Z,49.70
2018-08-20T02:59:33.986Z,49.60
2018-08-20T03:02:02.360Z,49.70
2018-08-20T03:04:30.633Z,49.70
2018-08-20T03:06:59.021Z,49.70
2018-08-20T03:09:27.333Z,49.70
2018-08-20T03:11:55.655Z,49.70
2018-08-20T03:14:24.040Z,49.70
2018-08-20T03:16:52.424Z,49.70
2018-08-20T03:19:20.688Z,49.70
2018-08-20T03:21:49.022Z,49.70
2018-08-20T03:24:17.361Z,49.80
2018-08-20T03:26:45.653Z,49.80
2018-08-20T03:29:13.994Z,49.80
2018-08-20T03:31:42.861Z,49.80
2018-08-20T03:34:11.171Z,49.80
2018-08-20T03:36:39.457Z,49.80
2018-08-20T03:39:08.265Z,49.70
2018-08-20T03:41:36.529Z,49.80
2018-08-20T03:44:04.877Z,49.80
2018-08-20T03:46:33.229Z,49.80
2018-08-20T03:49:01.531Z,49.80
2018-08-20T03:51:29.865Z,49.80
2018-08-20T03:53:58.216Z,49.70
2018-08-20T03:56:26.550Z,50.50
2018-08-20T03:58:55.433Z,50.40
2018-08-20T04:01:24.970Z,49.80
2018-08-20T04:03:53.388Z,49.80
2018-08-20T04:06:21.770Z,49.80
2018-08-20T04:08:50.062Z,49.70
2018-08-20T04:11:18.333Z,49.70
2018-08-20T04:13:46.641Z,49.80
2018-08-20T04:16:14.937Z,49.70
2018-08-20T04:18:43.208Z,49.70
2018-08-20T04:21:11.520Z,49.70
2018-08-20T04:23:39.875Z,49.80
2018-08-20T04:26:08.182Z,49.70
2018-08-20T04:28:36.490Z,50.50
2018-08-20T04:31:05.376Z,49.70
2018-08-20T04:33:33.709Z,49.70
2018-08-20T04:36:02.057Z,49.70
2018-08-20T04:38:30.372Z,49.60
2018-08-20T04:40:58.714Z,50.00
2018-08-20T04:43:27.009Z,49.70
2018-08-20T04:45:55.741Z,49.70
2018-08-20T04:48:24.064Z,50.20
2018-08-20T04:50:52.493Z,49.60
2018-08-20T04:53:20.645Z,49.70
2018-08-20T04:55:48.959Z,49.70
2018-08-20T04:58:17.297Z,49.60
2018-08-20T05:00:45.579Z,49.60
2018-08-20T05:03:16.980Z,49.70
2018-08-20T05:05:45.466Z,49.60
2018-08-20T05:08:13.969Z,49.60
2018-08-20T05:10:42.335Z,49.60
2018-08-20T05:13:10.706Z,49.60
2018-08-20T05:15:39.049Z,49.50
2018-08-20T05:18:07.378Z,49.50
2018-08-20T05:20:35.741Z,49.50
2018-08-20T05:23:04.185Z,49.50
2018-08-20T05:25:32.464Z,49.40
2018-08-20T05:28:00.766Z,49.30
2018-08-20T05:30:29.201Z,49.30
2018-08-20T05:32:57.532Z,49.30
2018-08-20T05:35:25.941Z,49.40
2018-08-20T05:37:54.244Z,49.30
2018-08-20T05:40:22.613Z,49.20
2018-08-20T05:42:51.018Z,49.30
2018-08-20T05:45:19.371Z,49.30
2018-08-20T05:47:47.773Z,49.40
2018-08-20T05:50:16.062Z,49.30
2018-08-20T05:52:44.390Z,49.30
2018-08-20T05:55:12.675Z,49.30
2018-08-20T05:57:40.958Z,49.30
2018-08-20T06:00:12.178Z,49.30
2018-08-20T06:02:40.499Z,49.30
2018-08-20T06:05:08.923Z,49.30
2018-08-20T06:07:37.186Z,49.20
2018-08-20T06:10:06.302Z,49.30
2018-08-20T06:12:35.086Z,49.10
2018-08-20T06:15:03.401Z,49.20
2018-08-20T06:17:31.714Z,49.10
2018-08-20T06:19:59.993Z,49.10
2018-08-20T06:22:28.373Z,49.10
2018-08-20T06:24:57.049Z,49.40
2018-08-20T06:27:25.454Z,50.00
2018-08-20T06:29:53.678Z,49.20
2018-08-20T06:32:22.011Z,49.00
2018-08-20T06:34:50.295Z,49.00
2018-08-20T06:37:18.565Z,49.00
2018-08-20T06:39:46.847Z,49.00
2018-08-20T06:42:15.123Z,48.90
2018-08-20T06:44:43.429Z,48.80
2018-08-20T06:47:11.747Z,49.40
2018-08-20T06:49:40.038Z,48.90
2018-08-20T06:52:08.440Z,48.80
2018-08-20T06:54:36.812Z,49.80
2018-08-20T06:57:05.061Z,49.20
2018-08-20T06:59:33.362Z,48.90
2018-08-20T07:02:01.653Z,48.90
2018-08-20T07:04:29.981Z,48.70
2018-08-20T07:06:58.250Z,48.60
2018-08-20T07:09:26.610Z,49.00
2018-08-20T07:11:55.162Z,52.10
2018-08-20T07:14:23.415Z,50.00
2018-08-20T07:16:52.254Z,49.50
2018-08-20T07:19:20.562Z,49.40
2018-08-20T07:21:48.858Z,49.30
2018-08-20T07:24:19.651Z,49.40
2018-08-20T07:26:48.930Z,49.30
2018-08-20T07:29:26.781Z,51.40
2018-08-20T07:31:55.259Z,50.70
2018-08-20T07:34:23.553Z,49.60
2018-08-20T07:36:52.419Z,49.50
2018-08-20T07:39:20.706Z,51.80
2018-08-20T07:41:50.153Z,49.40
2018-08-20T07:44:18.643Z,49.70
2018-08-20T07:46:46.935Z,49.60
2018-08-20T07:49:20.262Z,49.30
2018-08-20T07:51:51.602Z,53.70
2018-08-20T07:54:21.432Z,50.50
2018-08-20T07:56:49.933Z,49.60
2018-08-20T07:59:18.709Z,51.10
2018-08-20T08:01:47.017Z,51.80
2018-08-20T08:04:15.527Z,50.50
2018-08-20T08:06:43.855Z,51.80
2018-08-20T08:09:12.399Z,50.90
2018-08-20T08:11:40.734Z,50.10
2018-08-20T08:14:09.058Z,49.50
2018-08-20T08:16:38.265Z,49.40
2018-08-20T08:19:06.582Z,51.00
2018-08-20T08:21:34.862Z,50.60
2018-08-20T08:24:03.781Z,49.80
2018-08-20T08:26:32.668Z,50.50
2018-08-20T08:29:01.067Z,49.40
2018-08-20T08:31:29.407Z,49.70
2018-08-20T08:33:57.701Z,49.10
2018-08-20T08:36:25.985Z,48.90
2018-08-20T08:38:54.563Z,49.60
2018-08-20T08:41:23.714Z,50.10
2018-08-20T08:43:52.070Z,49.20
2018-08-20T08:46:20.367Z,51.20
2018-08-20T08:48:48.645Z,50.20
2018-08-20T08:51:17.289Z,48.90
2018-08-20T08:53:45.559Z,48.70
2018-08-20T08:56:13.850Z,49.10
2018-08-20T08:58:42.165Z,49.10
2018-08-20T09:01:11.147Z,49.30
2018-08-20T09:03:39.402Z,49.40
2018-08-20T09:06:07.698Z,49.80
2018-08-20T09:08:36.335Z,48.70
2018-08-20T09:11:04.733Z,48.80
2018-08-20T09:13:33.044Z,49.00
2018-08-20T09:16:01.344Z,49.30
2018-08-20T09:18:29.618Z,48.30
2018-08-20T09:20:57.894Z,49.30
2018-08-20T09:23:26.225Z,49.20
2018-08-20T09:25:54.534Z,49.10
2018-08-20T09:28:22.829Z,48.60
2018-08-20T09:30:51.177Z,48.70
2018-08-20T09:33:19.542Z,48.20
2018-08-20T09:35:47.810Z,48.50
2018-08-20T09:38:16.118Z,48.60
2018-08-20T09:40:44.434Z,48.00
2018-08-20T09:43:12.695Z,47.90
2018-08-20T09:45:40.997Z,47.80
2018-08-20T09:48:09.278Z,47.80
2018-08-20T09:50:37.555Z,47.70
2018-08-20T09:53:05.893Z,47.60
2018-08-20T09:55:36.182Z,47.50
2018-08-20T09:58:04.469Z,47.40
2018-08-20T10:00:37.943Z,47.60
2018-08-20T10:03:06.253Z,47.40
2018-08-20T10:05:36.104Z,47.40
2018-08-20T10:08:04.523Z,47.30
2018-08-20T10:10:32.825Z,47.20
2018-08-20T10:13:01.087Z,47.30
2018-08-20T10:15:31.381Z,47.10
2018-08-20T10:17:59.662Z,47.00
2018-08-20T10:20:28.057Z,47.00
2018-08-20T10:22:56.366Z,47.00
2018-08-20T10:25:27.611Z,46.60
2018-08-20T10:27:55.946Z,46.40
2018-08-20T10:30:24.398Z,47.00
2018-08-20T10:32:54.527Z,46.40
2018-08-20T10:35:23.008Z,45.90
2018-08-20T10:37:51.420Z,46.70
2018-08-20T10:40:19.591Z,46.70
2018-08-20T10:42:49.626Z,46.40
2018-08-20T10:45:24.248Z,46.10
2018-08-20T10:47:52.677Z,46.50
2018-08-20T10:50:21.234Z,46.40
2018-08-20T10:52:52.694Z,46.20
2018-08-20T10:55:22.645Z,46.10
2018-08-20T10:57:54.647Z,46.70
2018-08-20T11:00:23.369Z,46.50
2018-08-20T11:02:55.842Z,46.50
2018-08-20T11:05:24.758Z,45.40
2018-08-20T11:07:53.065Z,45.70
2018-08-20T11:10:25.039Z,45.30
2018-08-20T11:12:55.582Z,45.50
2018-08-20T11:15:25.510Z,46.10
2018-08-20T11:17:53.813Z,46.20
2018-08-20T11:20:22.098Z,46.00
2018-08-20T11:22:50.367Z,46.00
2018-08-20T11:25:18.647Z,45.20
2018-08-20T11:27:46.895Z,45.70
2018-08-20T11:30:15.649Z,45.70
2018-08-20T11:32:43.929Z,45.80
2018-08-20T11:35:12.492Z,45.90
2018-08-20T11:37:40.902Z,45.80
2018-08-20T11:40:09.592Z,44.70
2018-08-20T11:42:38.302Z,45.80
2018-08-20T11:45:08.826Z,45.20
2018-08-20T11:47:37.221Z,45.50
2018-08-20T11:50:05.528Z,45.60
2018-08-20T11:52:37.519Z,45.30
2018-08-20T11:55:05.820Z,43.60
2018-08-20T11:57:34.244Z,43.50
2018-08-20T12:00:02.538Z,44.30
2018-08-20T12:02:31.073Z,44.20
2018-08-20T12:04:59.388Z,43.00
2018-08-20T12:07:27.766Z,43.30
2018-08-20T12:09:56.058Z,42.90
2018-08-20T12:12:24.521Z,44.00
2018-08-20T12:14:52.773Z,44.70
2018-08-20T12:17:21.132Z,44.80
2018-08-20T12:19:50.162Z,44.80
2018-08-20T12:22:18.481Z,43.10
2018-08-20T12:24:46.750Z,43.40
2018-08-20T12:27:15.017Z,44.20
2018-08-20T12:29:43.310Z,45.00
2018-08-20T12:32:11.620Z,42.50
2018-08-20T12:34:39.911Z,45.00
2018-08-20T12:37:08.262Z,45.20
2018-08-20T12:39:36.566Z,45.10
2018-08-20T12:42:05.234Z,45.00
2018-08-20T12:44:33.568Z,44.90
2018-08-20T12:47:01.870Z,44.70
2018-08-20T12:49:30.166Z,44.80
2018-08-20T12:51:58.465Z,44.80
2018-08-20T12:54:26.729Z,44.00
2018-08-20T12:56:54.994Z,44.20
2018-08-20T12:59:23.257Z,44.60
2018-08-20T13:01:51.548Z,44.50
2018-08-20T13:04:19.814Z,43.70
2018-08-20T13:06:48.098Z,44.20
2018-08-20T13:09:16.403Z,43.20
2018-08-20T13:11:44.712Z,44.00
2018-08-20T13:14:12.984Z,44.50
2018-08-20T13:16:41.273Z,43.20
2018-08-20T13:19:09.546Z,44.30
2018-08-20T13:21:37.813Z,44.50
2018-08-20T13:24:06.322Z,41.80
2018-08-20T13:26:34.606Z,44.10
2018-08-20T13:29:02.949Z,44.30
2018-08-20T13:31:31.235Z,44.10
2018-08-20T13:33:59.553Z,44.30
2018-08-20T13:36:27.818Z,40.20
2018-08-20T13:38:56.194Z,43.00
2018-08-20T13:41:24.466Z,41.90
2018-08-20T13:43:52.926Z,44.00
2018-08-20T13:46:21.275Z,42.00
2018-08-20T13:48:49.624Z,42.60
2018-08-20T13:51:18.010Z,43.70
2018-08-20T13:53:46.375Z,43.40
2018-08-20T13:56:14.631Z,42.20
2018-08-20T13:58:43.040Z,41.80
2018-08-20T14:01:11.461Z,41.90
2018-08-20T14:03:39.742Z,41.00
2018-08-20T14:06:08.158Z,42.70
2018-08-20T14:08:36.612Z,41.80
2018-08-20T14:11:05.088Z,42.60
2018-08-20T14:13:33.585Z,41.40
2018-08-20T14:16:01.963Z,42.90
2018-08-20T14:18:30.260Z,41.90
2018-08-20T14:21:05.433Z,42.40
2018-08-20T14:23:34.090Z,42.00
2018-08-20T14:26:02.561Z,42.40
2018-08-20T14:28:31.243Z,43.60
2018-08-20T14:30:59.530Z,42.00
2018-08-20T14:33:27.893Z,40.90
2018-08-20T14:35:56.190Z,40.40
2018-08-20T14:38:24.472Z,42.00
2018-08-20T14:40:52.813Z,42.00
2018-08-20T14:43:21.299Z,42.10
2018-08-20T14:45:55.043Z,42.90
2018-08-20T14:48:23.376Z,43.00
2018-08-20T14:50:51.737Z,41.80
2018-08-20T14:53:20.288Z,42.70
2018-08-20T14:55:48.650Z,41.70
2018-08-20T14:58:17.065Z,41.60
2018-08-20T15:00:45.430Z,43.10
2018-08-20T15:03:13.853Z,43.00
2018-08-20T15:05:42.270Z,42.70
2018-08-20T15:08:10.792Z,41.90
2018-08-20T15:10:39.089Z,41.90
2018-08-20T15:13:07.572Z,42.20
2018-08-20T15:15:36.066Z,43.00
2018-08-20T15:18:05.175Z,42.50
2018-08-20T15:20:33.453Z,42.20
2018-08-20T15:23:01.774Z,43.10
2018-08-20T15:25:30.076Z,40.80
2018-08-20T15:27:58.338Z,41.10
2018-08-20T15:30:26.718Z,41.30
2018-08-20T15:32:55.020Z,41.30
2018-08-20T15:35:23.301Z,41.20
2018-08-20T15:37:51.770Z,40.60
2018-08-20T15:40:20.074Z,41.60
2018-08-20T15:42:48.569Z,42.10
2018-08-20T15:45:16.882Z,42.00
2018-08-20T15:47:45.132Z,41.60
2018-08-20T15:50:13.530Z,41.90
2018-08-20T15:52:41.998Z,42.00
2018-08-20T15:55:10.358Z,42.30
2018-08-20T15:57:38.629Z,41.30
2018-08-20T16:00:08.617Z,42.20
2018-08-20T16:02:37.294Z,41.90
2018-08-20T16:05:05.605Z,42.10
2018-08-20T16:07:33.877Z,42.00
2018-08-20T16:10:02.206Z,42.30
2018-08-20T16:12:30.793Z,42.80
2018-08-20T16:14:59.158Z,42.90
2018-08-20T16:17:27.607Z,42.80
2018-08-20T16:19:56.090Z,42.90
2018-08-20T16:22:24.613Z,43.00
2018-08-20T16:24:52.855Z,43.00
2018-08-20T16:27:21.190Z,43.10
2018-08-20T16:29:49.487Z,44.00
2018-08-20T16:32:17.809Z,43.10
2018-08-20T16:34:46.225Z,43.30
2018-08-20T16:37:14.558Z,43.30
2018-08-20T16:39:43.097Z,43.50
2018-08-20T16:42:11.496Z,43.30
2018-08-20T16:44:39.805Z,43.60
2018-08-20T16:47:08.133Z,43.60
2018-08-20T16:49:36.406Z,43.10
2018-08-20T16:52:04.858Z,44.00
2018-08-20T16:54:33.150Z,43.60
2018-08-20T16:57:01.464Z,43.80
2018-08-20T16:59:29.740Z,43.30
2018-08-20T17:01:58.061Z,44.00
2018-08-20T17:04:41.626Z,44.00
2018-08-20T17:07:09.911Z,44.00
2018-08-20T17:09:38.180Z,43.90
2018-08-20T17:12:06.461Z,43.70
2018-08-20T17:14:35.103Z,43.70
2018-08-20T17:17:03.402Z,44.00
2018-08-20T17:19:31.694Z,44.80
2018-08-20T17:21:59.991Z,43.40
2018-08-20T17:24:33.747Z,44.40
2018-08-20T17:27:02.362Z,43.60
2018-08-20T17:29:30.676Z,44.50
2018-08-20T17:32:00.754Z,44.50
2018-08-20T17:34:29.621Z,44.60
2018-08-20T17:36:58.235Z,44.70
2018-08-20T17:39:26.546Z,44.70
2018-08-20T17:41:54.853Z,44.60
2018-08-20T17:44:23.810Z,45.00
2018-08-20T17:46:52.116Z,44.80
2018-08-20T17:49:25.878Z,44.80
2018-08-20T17:51:54.245Z,45.20
2018-08-20T17:54:22.546Z,44.90
2018-08-20T17:56:50.844Z,45.10
2018-08-20T17:59:19.947Z,45.00
2018-08-20T18:01:48.226Z,45.60
2018-08-20T18:04:18.202Z,45.40
2018-08-20T18:06:49.823Z,45.60
2018-08-20T18:09:18.390Z,45.60
2018-08-20T18:11:51.493Z,45.60
2018-08-20T18:14:22.729Z,45.80
2018-08-20T18:16:51.083Z,45.80
2018-08-20T18:19:19.438Z,45.80
2018-08-20T18:21:48.041Z,45.80
2018-08-20T18:24:18.418Z,46.00
2018-08-20T18:26:51.785Z,46.00
2018-08-20T18:29:20.225Z,45.90
2018-08-20T18:31:55.796Z,46.00
2018-08-20T18:34:24.126Z,45.90
2018-08-20T18:36:52.591Z,46.10
2018-08-20T18:39:20.885Z,46.20
2018-08-20T18:41:56.127Z,46.00
2018-08-20T18:44:25.471Z,46.20
2018-08-20T18:46:54.193Z,46.90
2018-08-20T18:49:23.142Z,46.30
2018-08-20T18:51:56.849Z,46.40
2018-08-20T18:54:25.947Z,46.40
2018-08-20T18:56:59.318Z,46.40
2018-08-20T18:59:27.623Z,46.40
2018-08-20T19:01:55.909Z,46.50
2018-08-20T19:04:24.189Z,46.50
2018-08-20T19:06:56.796Z,46.50
2018-08-20T19:09:24.989Z,46.60
2018-08-20T19:11:53.310Z,46.60
2018-08-20T19:14:21.574Z,46.60
2018-08-20T19:16:49.852Z,46.70
2018-08-20T19:19:18.407Z,46.80
2018-08-20T19:21:47.177Z,46.80
2018-08-20T19:24:15.459Z,46.80
2018-08-20T19:26:43.820Z,46.90
2018-08-20T19:29:31.881Z,46.90
2018-08-20T19:32:00.150Z,47.60
2018-08-20T19:34:28.960Z,46.80
2018-08-20T19:36:57.261Z,46.70
2018-08-20T19:39:25.543Z,46.60
2018-08-20T19:41:53.843Z,46.50
2018-08-20T19:44:22.130Z,46.50
2018-08-20T19:46:51.193Z,46.50
2018-08-20T19:49:19.891Z,46.50
2018-08-20T19:51:49.622Z,46.50
2018-08-20T19:54:17.976Z,46.60
2018-08-20T19:56:46.226Z,46.60
2018-08-20T19:59:17.760Z,46.60
2018-08-20T20:01:46.057Z,46.60
2018-08-20T20:04:15.902Z,46.70
2018-08-20T20:06:44.593Z,46.70
2018-08-20T20:09:12.849Z,46.70
2018-08-20T20:11:42.626Z,46.70
2018-08-20T20:14:10.949Z,46.80
2018-08-20T20:16:44.633Z,46.90
2018-08-20T20:19:12.968Z,46.90
2018-08-20T20:21:41.249Z,46.90
2018-08-20T20:24:10.244Z,47.00
2018-08-20T20:26:38.605Z,47.00
2018-08-20T20:29:08.099Z,47.60
2018-08-20T20:31:37.857Z,47.10
2018-08-20T20:34:06.249Z,47.10
2018-08-20T20:36:34.943Z,47.30
2018-08-20T20:39:04.734Z,47.30
2018-08-20T20:41:33.281Z,47.30
2018-08-20T20:44:01.736Z,47.50
2018-08-20T20:46:30.301Z,47.50
2018-08-20T20:48:59.354Z,47.60
2018-08-20T20:51:28.005Z,47.60
2018-08-20T20:53:56.264Z,47.70
2018-08-20T20:56:26.031Z,47.70
2018-08-20T20:58:55.026Z,47.80
2018-08-20T21:01:24.218Z,47.80
2018-08-20T21:03:52.614Z,47.80
2018-08-20T21:06:20.915Z,47.90
2018-08-20T21:08:49.944Z,47.90
2018-08-20T21:11:19.743Z,48.00
2018-08-20T21:13:48.329Z,48.00
2018-08-20T21:16:19.216Z,48.10
2018-08-20T21:18:50.214Z,48.00
2018-08-20T21:21:19.126Z,48.10
2018-08-20T21:23:47.498Z,48.10
2018-08-20T21:26:15.883Z,48.20
2018-08-20T21:28:45.280Z,48.10
2018-08-20T21:31:14.603Z,48.20
2018-08-20T21:33:43.610Z,48.20
2018-08-20T21:36:12.603Z,48.80
2018-08-20T21:38:41.084Z,48.20
2018-08-20T21:41:09.454Z,48.30
2018-08-20T21:43:43.274Z,48.30
2018-08-20T21:46:12.271Z,48.30
2018-08-20T21:48:41.001Z,48.30
2018-08-20T21:51:14.537Z,48.40
2018-08-20T21:53:42.809Z,48.50
2018-08-20T21:56:12.127Z,48.40
2018-08-20T21:58:41.669Z,48.50
2018-08-20T22:01:11.562Z,48.60
2018-08-20T22:03:40.426Z,48.60
2018-08-20T22:06:08.837Z,48.50
2018-08-20T22:08:37.154Z,48.50
2018-08-20T22:11:05.536Z,48.60
2018-08-20T22:13:33.810Z,48.70
2018-08-20T22:16:13.505Z,48.70
2018-08-20T22:18:43.081Z,48.70
2018-08-20T22:21:13.477Z,48.70
2018-08-20T22:23:42.929Z,48.70
2018-08-20T22:26:15.693Z,48.70
2018-08-20T22:28:44.039Z,48.70
2018-08-20T22:31:12.431Z,48.70
2018-08-20T22:33:40.713Z,48.80
2018-08-20T22:36:12.373Z,48.80
2018-08-20T22:38:57.472Z,48.90
2018-08-20T22:41:26.782Z,49.00
2018-08-20T22:43:55.105Z,49.00
2018-08-20T22:46:23.813Z,49.00
2018-08-20T22:49:02.385Z,49.00
2018-08-20T22:51:30.674Z,49.00
2018-08-20T22:54:00.642Z,49.00
2018-08-20T22:56:32.627Z,49.10
2018-08-20T22:59:05.518Z,49.20
2018-08-20T23:01:33.854Z,49.20
2018-08-20T23:04:02.153Z,49.10
2018-08-20T23:06:30.702Z,49.70
2018-08-20T23:08:59.287Z,49.20
2018-08-20T23:11:40.114Z,49.30
2018-08-20T23:14:10.214Z,49.20
2018-08-20T23:16:38.927Z,49.20
2018-08-20T23:19:07.497Z,49.30
2018-08-20T23:21:41.065Z,49.40
2018-08-20T23:24:09.890Z,49.30
2018-08-20T23:26:38.209Z,49.40
2018-08-20T23:29:06.519Z,49.40
2018-08-20T23:31:34.841Z,49.50
2018-08-20T23:34:03.173Z,49.50
2018-08-20T23:36:31.431Z,49.50
2018-08-20T23:39:00.128Z,49.50
2018-08-20T23:41:28.674Z,49.60
2018-08-20T23:44:00.091Z,49.70
2018-08-20T23:47:36.590Z,49.70
2018-08-20T23:50:05.586Z,49.70
2018-08-20T23:52:33.905Z,49.70
2018-08-20T23:55:02.258Z,50.10
2018-08-20T23:57:30.568Z,49.80
2018-08-20T23:59:58.845Z,49.80
